sensor_id;sensor_type;location;lat;lon;timestamp;temperature;humidity
8103;DHT22;4094;49.948;11.574;2023-04-30T00:02:06;14.50;63.70
8103;DHT22;4094;49.948;11.574;2023-04-30T00:04:36;14.50;63.70
8103;DHT22;4094;49.948;11.574;2023-04-30T00:07:05;14.50;63.70
8103;DHT22;4094;49.948;11.574;2023-04-30T00:09:35;14.50;63.80
8103;DHT22;4094;49.948;11.574;2023-04-30T00:12:05;14.50;64.00
8103;DHT22;4094;49.948;11.574;2023-04-30T00:14:34;14.50;63.90
8103;DHT22;4094;49.948;11.574;2023-04-30T00:17:05;14.50;63.90
8103;DHT22;4094;49.948;11.574;2023-04-30T00:19:35;14.50;63.90
8103;DHT22;4094;49.948;11.574;2023-04-30T00:22:04;14.50;63.90
8103;DHT22;4094;49.948;11.574;2023-04-30T00:24:33;14.50;64.00
8103;DHT22;4094;49.948;11.574;2023-04-30T00:27:03;14.50;64.10
8103;DHT22;4094;49.948;11.574;2023-04-30T00:29:32;14.50;64.00
8103;DHT22;4094;49.948;11.574;2023-04-30T00:32:01;14.50;64.10
8103;DHT22;4094;49.948;11.574;2023-04-30T00:34:32;14.50;64.20
8103;DHT22;4094;49.948;11.574;2023-04-30T00:37:01;14.50;64.20
8103;DHT22;4094;49.948;11.574;2023-04-30T00:39:30;14.50;64.10
8103;DHT22;4094;49.948;11.574;2023-04-30T00:41:59;14.50;64.20
8103;DHT22;4094;49.948;11.574;2023-04-30T00:44:29;14.50;64.10
8103;DHT22;4094;49.948;11.574;2023-04-30T00:46:58;14.50;64.20
8103;DHT22;4094;49.948;11.574;2023-04-30T00:49:27;14.50;64.20
8103;DHT22;4094;49.948;11.574;2023-04-30T00:51:58;14.50;64.20
8103;DHT22;4094;49.948;11.574;2023-04-30T00:54:28;14.40;64.20
8103;DHT22;4094;49.948;11.574;2023-04-30T00:56:57;14.40;64.40
8103;DHT22;4094;49.948;11.574;2023-04-30T00:59:26;14.40;64.40
8103;DHT22;4094;49.948;11.574;2023-04-30T01:01:56;14.40;64.40
8103;DHT22;4094;49.948;11.574;2023-04-30T01:04:25;14.40;64.40
8103;DHT22;4094;49.948;11.574;2023-04-30T01:06:57;14.40;64.60
8103;DHT22;4094;49.948;11.574;2023-04-30T01:09:29;14.40;64.60
8103;DHT22;4094;49.948;11.574;2023-04-30T01:12:07;14.40;64.70
8103;DHT22;4094;49.948;11.574;2023-04-30T01:14:49;14.30;64.80
8103;DHT22;4094;49.948;11.574;2023-04-30T01:17:28;14.30;64.80
8103;DHT22;4094;49.948;11.574;2023-04-30T01:20:00;14.30;64.80
8103;DHT22;4094;49.948;11.574;2023-04-30T01:22:35;14.30;64.90
8103;DHT22;4094;49.948;11.574;2023-04-30T01:25:34;14.30;65.00
8103;DHT22;4094;49.948;11.574;2023-04-30T01:28:14;14.20;65.00
8103;DHT22;4094;49.948;11.574;2023-04-30T01:30:44;14.20;65.00
8103;DHT22;4094;49.948;11.574;2023-04-30T01:33:14;14.20;65.00
8103;DHT22;4094;49.948;11.574;2023-04-30T01:39:14;14.20;65.20
8103;DHT22;4094;49.948;11.574;2023-04-30T01:41:56;14.10;66.00
8103;DHT22;4094;49.948;11.574;2023-04-30T01:44:42;14.10;65.40
8103;DHT22;4094;49.948;11.574;2023-04-30T01:47:23;14.10;65.40
8103;DHT22;4094;49.948;11.574;2023-04-30T01:50:08;14.10;65.50
8103;DHT22;4094;49.948;11.574;2023-04-30T01:52:45;14.00;65.50
8103;DHT22;4094;49.948;11.574;2023-04-30T01:55:19;14.00;65.70
8103;DHT22;4094;49.948;11.574;2023-04-30T01:57:56;14.00;65.90
8103;DHT22;4094;49.948;11.574;2023-04-30T02:00:29;14.00;65.90
8103;DHT22;4094;49.948;11.574;2023-04-30T02:02:59;14.00;65.90
8103;DHT22;4094;49.948;11.574;2023-04-30T02:05:30;14.00;65.90
8103;DHT22;4094;49.948;11.574;2023-04-30T02:08:00;14.00;66.00
8103;DHT22;4094;49.948;11.574;2023-04-30T02:10:29;14.00;66.00
8103;DHT22;4094;49.948;11.574;2023-04-30T02:12:58;14.00;66.00
8103;DHT22;4094;49.948;11.574;2023-04-30T02:15:30;14.00;66.00
8103;DHT22;4094;49.948;11.574;2023-04-30T02:17:59;14.00;66.30
8103;DHT22;4094;49.948;11.574;2023-04-30T02:20:28;14.00;66.20
8103;DHT22;4094;49.948;11.574;2023-04-30T02:22:57;14.00;66.30
8103;DHT22;4094;49.948;11.574;2023-04-30T02:25:26;14.00;66.20
8103;DHT22;4094;49.948;11.574;2023-04-30T02:27:57;14.00;66.30
8103;DHT22;4094;49.948;11.574;2023-04-30T02:30:26;14.00;66.30
8103;DHT22;4094;49.948;11.574;2023-04-30T02:32:57;14.00;66.30
8103;DHT22;4094;49.948;11.574;2023-04-30T02:35:26;14.00;66.30
8103;DHT22;4094;49.948;11.574;2023-04-30T02:37:56;14.00;66.30
8103;DHT22;4094;49.948;11.574;2023-04-30T02:40:25;14.00;66.30
8103;DHT22;4094;49.948;11.574;2023-04-30T02:42:54;14.00;66.30
8103;DHT22;4094;49.948;11.574;2023-04-30T02:45:23;13.90;66.40
8103;DHT22;4094;49.948;11.574;2023-04-30T02:47:53;14.00;66.50
8103;DHT22;4094;49.948;11.574;2023-04-30T02:50:23;13.90;66.40
8103;DHT22;4094;49.948;11.574;2023-04-30T02:52:52;13.90;66.40
8103;DHT22;4094;49.948;11.574;2023-04-30T02:55:23;13.90;66.50
8103;DHT22;4094;49.948;11.574;2023-04-30T02:57:52;13.90;66.50
8103;DHT22;4094;49.948;11.574;2023-04-30T03:00:21;13.90;66.50
8103;DHT22;4094;49.948;11.574;2023-04-30T03:02:51;13.90;66.50
8103;DHT22;4094;49.948;11.574;2023-04-30T03:05:20;13.90;66.50
8103;DHT22;4094;49.948;11.574;2023-04-30T03:07:50;13.90;66.30
8103;DHT22;4094;49.948;11.574;2023-04-30T03:10:20;13.90;66.30
8103;DHT22;4094;49.948;11.574;2023-04-30T03:12:49;13.90;66.20
8103;DHT22;4094;49.948;11.574;2023-04-30T03:15:18;13.90;65.90
8103;DHT22;4094;49.948;11.574;2023-04-30T03:17:47;13.90;65.70
8103;DHT22;4094;49.948;11.574;2023-04-30T03:20:17;14.00;65.60
8103;DHT22;4094;49.948;11.574;2023-04-30T03:22:47;14.00;65.40
8103;DHT22;4094;49.948;11.574;2023-04-30T03:25:17;14.00;65.10
8103;DHT22;4094;49.948;11.574;2023-04-30T03:27:47;14.00;64.70
8103;DHT22;4094;49.948;11.574;2023-04-30T03:30:16;14.10;65.10
8103;DHT22;4094;49.948;11.574;2023-04-30T03:32:45;14.10;64.90
8103;DHT22;4094;49.948;11.574;2023-04-30T03:35:15;14.10;64.60
8103;DHT22;4094;49.948;11.574;2023-04-30T03:37:46;14.10;64.30
8103;DHT22;4094;49.948;11.574;2023-04-30T03:40:16;14.10;64.10
8103;DHT22;4094;49.948;11.574;2023-04-30T03:42:45;14.10;64.10
8103;DHT22;4094;49.948;11.574;2023-04-30T03:45:18;14.10;64.00
8103;DHT22;4094;49.948;11.574;2023-04-30T03:47:49;14.10;63.90
8103;DHT22;4094;49.948;11.574;2023-04-30T03:50:19;14.10;63.60
8103;DHT22;4094;49.948;11.574;2023-04-30T03:52:49;14.10;63.50
8103;DHT22;4094;49.948;11.574;2023-04-30T03:55:20;14.10;63.20
8103;DHT22;4094;49.948;11.574;2023-04-30T03:57:50;14.10;63.20
8103;DHT22;4094;49.948;11.574;2023-04-30T04:00:19;14.10;63.10
8103;DHT22;4094;49.948;11.574;2023-04-30T04:02:52;14.10;63.20
8103;DHT22;4094;49.948;11.574;2023-04-30T04:05:22;14.10;63.00
8103;DHT22;4094;49.948;11.574;2023-04-30T04:07:51;14.10;62.90
8103;DHT22;4094;49.948;11.574;2023-04-30T04:10:22;14.10;62.30
8103;DHT22;4094;49.948;11.574;2023-04-30T04:12:51;14.10;62.20
8103;DHT22;4094;49.948;11.574;2023-04-30T04:15:20;14.00;62.10
8103;DHT22;4094;49.948;11.574;2023-04-30T04:17:50;14.00;62.20
8103;DHT22;4094;49.948;11.574;2023-04-30T04:20:19;14.00;62.00
8103;DHT22;4094;49.948;11.574;2023-04-30T04:22:49;14.00;61.50
8103;DHT22;4094;49.948;11.574;2023-04-30T04:25:19;14.00;61.50
8103;DHT22;4094;49.948;11.574;2023-04-30T04:27:53;13.90;61.40
8103;DHT22;4094;49.948;11.574;2023-04-30T04:30:22;13.90;61.00
8103;DHT22;4094;49.948;11.574;2023-04-30T04:32:53;13.90;61.40
8103;DHT22;4094;49.948;11.574;2023-04-30T04:35:27;13.80;60.50
8103;DHT22;4094;49.948;11.574;2023-04-30T04:37:57;13.80;60.40
8103;DHT22;4094;49.948;11.574;2023-04-30T04:40:28;13.80;59.90
8103;DHT22;4094;49.948;11.574;2023-04-30T04:43:00;13.70;60.50
8103;DHT22;4094;49.948;11.574;2023-04-30T04:45:29;13.70;60.90
8103;DHT22;4094;49.948;11.574;2023-04-30T04:47:59;13.70;61.00
8103;DHT22;4094;49.948;11.574;2023-04-30T04:50:29;13.70;60.80
8103;DHT22;4094;49.948;11.574;2023-04-30T04:52:58;13.70;61.00
8103;DHT22;4094;49.948;11.574;2023-04-30T04:55:27;13.70;61.40
8103;DHT22;4094;49.948;11.574;2023-04-30T04:57:57;13.70;61.00
8103;DHT22;4094;49.948;11.574;2023-04-30T05:00:28;13.70;60.50
8103;DHT22;4094;49.948;11.574;2023-04-30T05:02:57;13.70;61.30
8103;DHT22;4094;49.948;11.574;2023-04-30T05:05:27;13.70;61.00
8103;DHT22;4094;49.948;11.574;2023-04-30T05:07:56;13.70;61.00
8103;DHT22;4094;49.948;11.574;2023-04-30T05:10:25;13.70;60.40
8103;DHT22;4094;49.948;11.574;2023-04-30T05:12:54;13.70;60.60
8103;DHT22;4094;49.948;11.574;2023-04-30T05:15:24;13.70;60.40
8103;DHT22;4094;49.948;11.574;2023-04-30T05:17:54;13.70;60.30
8103;DHT22;4094;49.948;11.574;2023-04-30T05:20:24;13.70;60.10
8103;DHT22;4094;49.948;11.574;2023-04-30T05:22:53;13.70;60.70
8103;DHT22;4094;49.948;11.574;2023-04-30T05:25:23;13.70;60.30
8103;DHT22;4094;49.948;11.574;2023-04-30T05:27:52;13.70;60.70
8103;DHT22;4094;49.948;11.574;2023-04-30T05:30:21;13.70;60.70
8103;DHT22;4094;49.948;11.574;2023-04-30T05:32:50;13.80;61.30
8103;DHT22;4094;49.948;11.574;2023-04-30T05:35:21;13.80;60.40
8103;DHT22;4094;49.948;11.574;2023-04-30T05:37:50;13.80;60.40
8103;DHT22;4094;49.948;11.574;2023-04-30T05:40:20;13.80;60.20
8103;DHT22;4094;49.948;11.574;2023-04-30T05:42:49;13.90;60.20
8103;DHT22;4094;49.948;11.574;2023-04-30T05:45:18;13.90;60.00
8103;DHT22;4094;49.948;11.574;2023-04-30T05:47:47;13.90;59.80
8103;DHT22;4094;49.948;11.574;2023-04-30T05:50:17;13.90;59.70
8103;DHT22;4094;49.948;11.574;2023-04-30T05:52:47;13.90;59.80
8103;DHT22;4094;49.948;11.574;2023-04-30T05:55:19;13.90;59.70
8103;DHT22;4094;49.948;11.574;2023-04-30T05:57:50;13.90;59.80
8103;DHT22;4094;49.948;11.574;2023-04-30T06:00:19;13.90;60.00
8103;DHT22;4094;49.948;11.574;2023-04-30T06:02:49;13.90;60.50
8103;DHT22;4094;49.948;11.574;2023-04-30T06:05:19;13.90;60.20
8103;DHT22;4094;49.948;11.574;2023-04-30T06:07:50;13.90;60.10
8103;DHT22;4094;49.948;11.574;2023-04-30T06:10:19;14.00;59.90
8103;DHT22;4094;49.948;11.574;2023-04-30T06:12:49;13.90;59.70
8103;DHT22;4094;49.948;11.574;2023-04-30T06:15:19;14.00;59.80
8103;DHT22;4094;49.948;11.574;2023-04-30T06:17:48;14.00;60.10
8103;DHT22;4094;49.948;11.574;2023-04-30T06:20:18;14.00;60.40
8103;DHT22;4094;49.948;11.574;2023-04-30T06:22:47;14.10;60.60
8103;DHT22;4094;49.948;11.574;2023-04-30T06:25:18;14.10;60.50
8103;DHT22;4094;49.948;11.574;2023-04-30T06:27:47;14.20;60.40
8103;DHT22;4094;49.948;11.574;2023-04-30T06:30:18;14.20;60.40
8103;DHT22;4094;49.948;11.574;2023-04-30T06:32:48;14.30;60.30
8103;DHT22;4094;49.948;11.574;2023-04-30T06:35:17;14.40;60.20
8103;DHT22;4094;49.948;11.574;2023-04-30T06:37:47;14.40;59.90
8103;DHT22;4094;49.948;11.574;2023-04-30T06:40:18;14.40;59.70
8103;DHT22;4094;49.948;11.574;2023-04-30T06:42:50;14.50;59.80
8103;DHT22;4094;49.948;11.574;2023-04-30T06:45:19;14.50;59.50
8103;DHT22;4094;49.948;11.574;2023-04-30T06:47:49;14.50;59.50
8103;DHT22;4094;49.948;11.574;2023-04-30T06:50:20;14.50;59.40
8103;DHT22;4094;49.948;11.574;2023-04-30T06:52:49;14.60;59.70
8103;DHT22;4094;49.948;11.574;2023-04-30T06:55:20;14.70;59.80
8103;DHT22;4094;49.948;11.574;2023-04-30T06:57:49;14.70;59.60
8103;DHT22;4094;49.948;11.574;2023-04-30T07:00:19;14.80;59.80
8103;DHT22;4094;49.948;11.574;2023-04-30T07:02:48;14.90;59.50
8103;DHT22;4094;49.948;11.574;2023-04-30T07:05:19;14.90;59.50
8103;DHT22;4094;49.948;11.574;2023-04-30T07:07:48;15.00;59.30
8103;DHT22;4094;49.948;11.574;2023-04-30T07:10:17;15.10;59.40
8103;DHT22;4094;49.948;11.574;2023-04-30T07:12:48;15.20;59.10
8103;DHT22;4094;49.948;11.574;2023-04-30T07:15:18;15.30;58.40
8103;DHT22;4094;49.948;11.574;2023-04-30T07:17:47;15.40;58.40
8103;DHT22;4094;49.948;11.574;2023-04-30T07:20:17;15.40;58.00
8103;DHT22;4094;49.948;11.574;2023-04-30T07:22:47;15.40;58.20
8103;DHT22;4094;49.948;11.574;2023-04-30T07:25:16;15.50;58.30
8103;DHT22;4094;49.948;11.574;2023-04-30T07:27:47;15.60;58.00
8103;DHT22;4094;49.948;11.574;2023-04-30T07:30:16;15.70;58.00
8103;DHT22;4094;49.948;11.574;2023-04-30T07:32:46;15.70;58.00
8103;DHT22;4094;49.948;11.574;2023-04-30T07:35:18;15.80;57.70
8103;DHT22;4094;49.948;11.574;2023-04-30T07:37:47;15.90;57.10
8103;DHT22;4094;49.948;11.574;2023-04-30T07:40:16;15.90;57.60
8103;DHT22;4094;49.948;11.574;2023-04-30T07:43:04;16.00;57.60
8103;DHT22;4094;49.948;11.574;2023-04-30T07:45:34;16.10;57.40
8103;DHT22;4094;49.948;11.574;2023-04-30T07:48:04;16.20;57.40
8103;DHT22;4094;49.948;11.574;2023-04-30T07:50:34;16.20;57.90
8103;DHT22;4094;49.948;11.574;2023-04-30T07:53:05;16.30;57.00
8103;DHT22;4094;49.948;11.574;2023-04-30T07:55:38;16.40;57.00
8103;DHT22;4094;49.948;11.574;2023-04-30T07:58:09;16.50;56.40
8103;DHT22;4094;49.948;11.574;2023-04-30T08:00:39;16.60;56.70
8103;DHT22;4094;49.948;11.574;2023-04-30T08:03:08;16.60;56.50
8103;DHT22;4094;49.948;11.574;2023-04-30T08:05:38;16.70;56.40
8103;DHT22;4094;49.948;11.574;2023-04-30T08:08:08;16.80;56.30
8103;DHT22;4094;49.948;11.574;2023-04-30T08:10:38;16.90;56.50
8103;DHT22;4094;49.948;11.574;2023-04-30T08:13:09;17.00;55.90
8103;DHT22;4094;49.948;11.574;2023-04-30T08:15:39;17.00;55.50
8103;DHT22;4094;49.948;11.574;2023-04-30T08:18:09;17.10;55.60
8103;DHT22;4094;49.948;11.574;2023-04-30T08:20:39;17.10;55.40
8103;DHT22;4094;49.948;11.574;2023-04-30T08:23:20;17.20;54.80
8103;DHT22;4094;49.948;11.574;2023-04-30T08:25:50;17.20;54.50
8103;DHT22;4094;49.948;11.574;2023-04-30T08:28:21;17.20;55.30
8103;DHT22;4094;49.948;11.574;2023-04-30T08:30:50;17.30;55.00
8103;DHT22;4094;49.948;11.574;2023-04-30T08:33:20;17.30;55.20
8103;DHT22;4094;49.948;11.574;2023-04-30T08:35:54;17.40;54.70
8103;DHT22;4094;49.948;11.574;2023-04-30T08:38:24;17.40;54.60
8103;DHT22;4094;49.948;11.574;2023-04-30T08:41:03;17.50;54.20
8103;DHT22;4094;49.948;11.574;2023-04-30T08:43:36;17.60;54.50
8103;DHT22;4094;49.948;11.574;2023-04-30T08:46:07;17.60;54.80
8103;DHT22;4094;49.948;11.574;2023-04-30T08:48:36;17.70;54.40
8103;DHT22;4094;49.948;11.574;2023-04-30T08:51:06;17.80;54.50
8103;DHT22;4094;49.948;11.574;2023-04-30T08:53:36;17.90;53.80
8103;DHT22;4094;49.948;11.574;2023-04-30T08:56:06;17.90;53.70
8103;DHT22;4094;49.948;11.574;2023-04-30T08:58:39;18.00;53.30
8103;DHT22;4094;49.948;11.574;2023-04-30T09:01:10;18.10;53.80
8103;DHT22;4094;49.948;11.574;2023-04-30T09:03:39;18.20;53.80
8103;DHT22;4094;49.948;11.574;2023-04-30T09:06:09;18.20;53.30
8103;DHT22;4094;49.948;11.574;2023-04-30T09:08:42;18.30;52.50
8103;DHT22;4094;49.948;11.574;2023-04-30T09:11:20;18.30;52.90
8103;DHT22;4094;49.948;11.574;2023-04-30T09:13:53;18.40;52.70
8103;DHT22;4094;49.948;11.574;2023-04-30T09:16:24;18.40;52.90
8103;DHT22;4094;49.948;11.574;2023-04-30T09:18:54;18.50;52.70
8103;DHT22;4094;49.948;11.574;2023-04-30T09:21:31;18.50;51.40
8103;DHT22;4094;49.948;11.574;2023-04-30T09:24:01;18.50;51.20
8103;DHT22;4094;49.948;11.574;2023-04-30T09:26:32;18.50;51.80
8103;DHT22;4094;49.948;11.574;2023-04-30T09:29:04;18.60;51.80
8103;DHT22;4094;49.948;11.574;2023-04-30T09:31:36;18.60;51.90
8103;DHT22;4094;49.948;11.574;2023-04-30T09:34:06;18.70;52.30
8103;DHT22;4094;49.948;11.574;2023-04-30T09:36:35;18.80;52.10
8103;DHT22;4094;49.948;11.574;2023-04-30T09:39:06;18.80;51.10
8103;DHT22;4094;49.948;11.574;2023-04-30T09:41:38;18.80;49.80
8103;DHT22;4094;49.948;11.574;2023-04-30T09:44:25;18.90;50.50
8103;DHT22;4094;49.948;11.574;2023-04-30T09:46:55;18.90;50.10
8103;DHT22;4094;49.948;11.574;2023-04-30T09:49:26;18.90;50.40
8103;DHT22;4094;49.948;11.574;2023-04-30T09:51:56;19.00;50.40
8103;DHT22;4094;49.948;11.574;2023-04-30T09:54:27;19.00;49.60
8103;DHT22;4094;49.948;11.574;2023-04-30T09:56:57;19.00;49.20
8103;DHT22;4094;49.948;11.574;2023-04-30T09:59:30;19.00;48.90
8103;DHT22;4094;49.948;11.574;2023-04-30T10:02:01;19.10;48.90
8103;DHT22;4094;49.948;11.574;2023-04-30T10:04:35;19.00;47.90
8103;DHT22;4094;49.948;11.574;2023-04-30T10:07:08;19.00;48.60
8103;DHT22;4094;49.948;11.574;2023-04-30T10:09:46;19.00;48.90
8103;DHT22;4094;49.948;11.574;2023-04-30T10:12:21;19.00;48.90
8103;DHT22;4094;49.948;11.574;2023-04-30T10:15:04;19.10;49.40
8103;DHT22;4094;49.948;11.574;2023-04-30T10:17:36;19.10;48.10
8103;DHT22;4094;49.948;11.574;2023-04-30T10:20:09;19.10;49.10
8103;DHT22;4094;49.948;11.574;2023-04-30T10:22:40;19.10;47.60
8103;DHT22;4094;49.948;11.574;2023-04-30T10:25:10;19.20;48.10
8103;DHT22;4094;49.948;11.574;2023-04-30T10:27:40;19.20;48.40
8103;DHT22;4094;49.948;11.574;2023-04-30T10:30:12;19.20;47.70
8103;DHT22;4094;49.948;11.574;2023-04-30T10:32:47;19.20;48.30
8103;DHT22;4094;49.948;11.574;2023-04-30T10:35:23;19.20;47.70
8103;DHT22;4094;49.948;11.574;2023-04-30T10:37:57;19.20;48.30
8103;DHT22;4094;49.948;11.574;2023-04-30T10:40:27;19.20;48.60
8103;DHT22;4094;49.948;11.574;2023-04-30T10:42:58;19.30;48.60
8103;DHT22;4094;49.948;11.574;2023-04-30T10:45:36;19.30;48.20
8103;DHT22;4094;49.948;11.574;2023-04-30T10:48:06;19.40;48.70
8103;DHT22;4094;49.948;11.574;2023-04-30T10:50:39;19.40;48.50
8103;DHT22;4094;49.948;11.574;2023-04-30T10:53:13;19.50;48.70
8103;DHT22;4094;49.948;11.574;2023-04-30T10:55:47;19.50;48.90
8103;DHT22;4094;49.948;11.574;2023-04-30T10:58:29;19.60;48.20
8103;DHT22;4094;49.948;11.574;2023-04-30T11:01:08;19.70;48.40
8103;DHT22;4094;49.948;11.574;2023-04-30T11:03:41;19.70;48.20
8103;DHT22;4094;49.948;11.574;2023-04-30T11:06:11;19.80;48.70
8103;DHT22;4094;49.948;11.574;2023-04-30T11:08:43;19.80;48.30
8103;DHT22;4094;49.948;11.574;2023-04-30T11:11:17;19.90;47.90
8103;DHT22;4094;49.948;11.574;2023-04-30T11:14:00;20.00;47.90
8103;DHT22;4094;49.948;11.574;2023-04-30T11:16:33;20.00;47.80
8103;DHT22;4094;49.948;11.574;2023-04-30T11:19:06;20.10;48.30
8103;DHT22;4094;49.948;11.574;2023-04-30T11:21:39;20.10;47.20
8103;DHT22;4094;49.948;11.574;2023-04-30T11:24:09;20.20;47.50
8103;DHT22;4094;49.948;11.574;2023-04-30T11:27:06;20.30;47.70
8103;DHT22;4094;49.948;11.574;2023-04-30T11:29:36;20.30;47.40
8103;DHT22;4094;49.948;11.574;2023-04-30T11:32:09;20.40;47.60
8103;DHT22;4094;49.948;11.574;2023-04-30T11:34:40;20.50;47.70
8103;DHT22;4094;49.948;11.574;2023-04-30T11:37:12;20.60;47.60
8103;DHT22;4094;49.948;11.574;2023-04-30T11:39:41;20.60;47.70
8103;DHT22;4094;49.948;11.574;2023-04-30T11:42:15;20.70;47.50
8103;DHT22;4094;49.948;11.574;2023-04-30T11:44:45;20.70;47.00
8103;DHT22;4094;49.948;11.574;2023-04-30T11:47:16;20.80;46.80
8103;DHT22;4094;49.948;11.574;2023-04-30T11:49:45;20.80;47.00
8103;DHT22;4094;49.948;11.574;2023-04-30T11:52:14;20.90;47.00
8103;DHT22;4094;49.948;11.574;2023-04-30T11:54:43;21.00;46.80
8103;DHT22;4094;49.948;11.574;2023-04-30T11:57:12;21.00;46.60
8103;DHT22;4094;49.948;11.574;2023-04-30T11:59:42;21.10;46.70
8103;DHT22;4094;49.948;11.574;2023-04-30T12:02:15;21.20;46.40
8103;DHT22;4094;49.948;11.574;2023-04-30T12:04:45;21.30;46.20
8103;DHT22;4094;49.948;11.574;2023-04-30T12:07:15;21.30;46.30
8103;DHT22;4094;49.948;11.574;2023-04-30T12:09:53;21.40;46.00
8103;DHT22;4094;49.948;11.574;2023-04-30T12:12:27;21.50;45.90
8103;DHT22;4094;49.948;11.574;2023-04-30T12:14:56;21.60;45.60
8103;DHT22;4094;49.948;11.574;2023-04-30T12:17:32;21.70;45.20
8103;DHT22;4094;49.948;11.574;2023-04-30T12:20:01;21.80;44.90
8103;DHT22;4094;49.948;11.574;2023-04-30T12:22:32;21.80;44.50
8103;DHT22;4094;49.948;11.574;2023-04-30T12:25:05;21.90;44.80
8103;DHT22;4094;49.948;11.574;2023-04-30T12:27:35;22.00;44.60
8103;DHT22;4094;49.948;11.574;2023-04-30T12:30:05;22.00;44.10
8103;DHT22;4094;49.948;11.574;2023-04-30T12:32:39;22.10;44.10
8103;DHT22;4094;49.948;11.574;2023-04-30T12:35:12;22.20;43.90
8103;DHT22;4094;49.948;11.574;2023-04-30T12:37:43;22.20;43.70
8103;DHT22;4094;49.948;11.574;2023-04-30T12:40:13;22.30;43.80
8103;DHT22;4094;49.948;11.574;2023-04-30T12:42:43;22.30;43.50
8103;DHT22;4094;49.948;11.574;2023-04-30T12:45:42;22.30;42.90
8103;DHT22;4094;49.948;11.574;2023-04-30T12:48:14;22.40;43.50
8103;DHT22;4094;49.948;11.574;2023-04-30T12:50:47;22.40;43.20
8103;DHT22;4094;49.948;11.574;2023-04-30T12:53:19;22.40;42.90
8103;DHT22;4094;49.948;11.574;2023-04-30T12:56:06;22.50;42.80
8103;DHT22;4094;49.948;11.574;2023-04-30T12:58:37;22.60;43.60
8103;DHT22;4094;49.948;11.574;2023-04-30T13:01:10;22.60;43.20
8103;DHT22;4094;49.948;11.574;2023-04-30T13:03:41;22.70;42.20
8103;DHT22;4094;49.948;11.574;2023-04-30T13:06:11;22.70;42.40
8103;DHT22;4094;49.948;11.574;2023-04-30T13:08:40;22.80;41.70
8103;DHT22;4094;49.948;11.574;2023-04-30T13:11:25;22.80;42.10
8103;DHT22;4094;49.948;11.574;2023-04-30T13:13:55;22.90;42.20
8103;DHT22;4094;49.948;11.574;2023-04-30T13:16:24;23.00;42.40
8103;DHT22;4094;49.948;11.574;2023-04-30T13:18:55;23.00;42.80
8103;DHT22;4094;49.948;11.574;2023-04-30T13:21:24;23.10;42.00
8103;DHT22;4094;49.948;11.574;2023-04-30T13:23:53;23.10;41.30
8103;DHT22;4094;49.948;11.574;2023-04-30T13:26:26;23.10;41.20
8103;DHT22;4094;49.948;11.574;2023-04-30T13:28:55;23.00;40.90
8103;DHT22;4094;49.948;11.574;2023-04-30T13:31:24;23.00;41.30
8103;DHT22;4094;49.948;11.574;2023-04-30T13:33:55;22.90;41.40
8103;DHT22;4094;49.948;11.574;2023-04-30T13:36:24;22.80;41.60
8103;DHT22;4094;49.948;11.574;2023-04-30T13:38:53;22.80;41.30
8103;DHT22;4094;49.948;11.574;2023-04-30T13:41:23;22.80;41.40
8103;DHT22;4094;49.948;11.574;2023-04-30T13:43:56;22.80;40.90
8103;DHT22;4094;49.948;11.574;2023-04-30T13:46:28;22.80;40.80
8103;DHT22;4094;49.948;11.574;2023-04-30T13:48:59;22.80;40.80
8103;DHT22;4094;49.948;11.574;2023-04-30T13:51:28;22.70;40.70
8103;DHT22;4094;49.948;11.574;2023-04-30T13:54:00;22.60;40.50
8103;DHT22;4094;49.948;11.574;2023-04-30T13:56:29;22.60;40.00
8103;DHT22;4094;49.948;11.574;2023-04-30T13:59:00;22.60;40.50
8103;DHT22;4094;49.948;11.574;2023-04-30T14:01:29;22.60;40.90
8103;DHT22;4094;49.948;11.574;2023-04-30T14:04:01;22.60;40.00
8103;DHT22;4094;49.948;11.574;2023-04-30T14:06:30;22.60;40.70
8103;DHT22;4094;49.948;11.574;2023-04-30T14:08:59;22.60;40.70
8103;DHT22;4094;49.948;11.574;2023-04-30T14:11:29;22.60;41.10
8103;DHT22;4094;49.948;11.574;2023-04-30T14:13:58;22.60;41.30
8103;DHT22;4094;49.948;11.574;2023-04-30T14:16:27;22.70;40.80
8103;DHT22;4094;49.948;11.574;2023-04-30T14:18:57;22.70;40.60
8103;DHT22;4094;49.948;11.574;2023-04-30T14:21:27;22.70;40.30
8103;DHT22;4094;49.948;11.574;2023-04-30T14:23:57;22.70;40.10
8103;DHT22;4094;49.948;11.574;2023-04-30T14:26:26;22.80;40.20
8103;DHT22;4094;49.948;11.574;2023-04-30T14:28:56;22.80;39.70
8103;DHT22;4094;49.948;11.574;2023-04-30T14:31:34;22.80;39.90
8103;DHT22;4094;49.948;11.574;2023-04-30T14:34:03;22.90;39.80
8103;DHT22;4094;49.948;11.574;2023-04-30T14:36:35;22.90;39.90
8103;DHT22;4094;49.948;11.574;2023-04-30T14:39:05;23.00;39.50
8103;DHT22;4094;49.948;11.574;2023-04-30T14:41:34;23.00;39.50
8103;DHT22;4094;49.948;11.574;2023-04-30T14:44:04;23.00;39.30
8103;DHT22;4094;49.948;11.574;2023-04-30T14:46:34;22.90;39.00
8103;DHT22;4094;49.948;11.574;2023-04-30T14:49:04;22.90;39.20
8103;DHT22;4094;49.948;11.574;2023-04-30T14:51:35;22.90;39.40
8103;DHT22;4094;49.948;11.574;2023-04-30T14:54:04;22.90;39.50
8103;DHT22;4094;49.948;11.574;2023-04-30T14:56:34;22.90;39.50
8103;DHT22;4094;49.948;11.574;2023-04-30T14:59:04;22.90;39.00
8103;DHT22;4094;49.948;11.574;2023-04-30T15:01:33;22.80;39.40
8103;DHT22;4094;49.948;11.574;2023-04-30T15:04:02;22.80;39.20
8103;DHT22;4094;49.948;11.574;2023-04-30T15:06:47;22.80;39.40
8103;DHT22;4094;49.948;11.574;2023-04-30T15:09:48;22.70;38.80
8103;DHT22;4094;49.948;11.574;2023-04-30T15:12:17;22.70;39.40
8103;DHT22;4094;49.948;11.574;2023-04-30T15:14:47;22.60;39.00
8103;DHT22;4094;49.948;11.574;2023-04-30T15:17:16;22.60;39.30
8103;DHT22;4094;49.948;11.574;2023-04-30T15:19:45;22.60;39.80
8103;DHT22;4094;49.948;11.574;2023-04-30T15:22:16;22.60;39.50
8103;DHT22;4094;49.948;11.574;2023-04-30T15:24:45;22.60;40.20
8103;DHT22;4094;49.948;11.574;2023-04-30T15:27:15;22.50;39.50
8103;DHT22;4094;49.948;11.574;2023-04-30T15:29:44;22.50;39.20
8103;DHT22;4094;49.948;11.574;2023-04-30T15:32:14;22.50;39.40
8103;DHT22;4094;49.948;11.574;2023-04-30T15:34:43;22.40;39.30
8103;DHT22;4094;49.948;11.574;2023-04-30T15:37:13;22.40;39.50
8103;DHT22;4094;49.948;11.574;2023-04-30T15:39:43;22.40;39.50
8103;DHT22;4094;49.948;11.574;2023-04-30T15:42:15;22.30;39.30
8103;DHT22;4094;49.948;11.574;2023-04-30T15:44:44;22.20;39.50
8103;DHT22;4094;49.948;11.574;2023-04-30T15:47:13;22.10;39.40
8103;DHT22;4094;49.948;11.574;2023-04-30T15:49:43;22.00;39.50
8103;DHT22;4094;49.948;11.574;2023-04-30T15:52:12;21.90;39.50
8103;DHT22;4094;49.948;11.574;2023-04-30T15:54:42;21.80;39.60
8103;DHT22;4094;49.948;11.574;2023-04-30T15:57:12;21.80;39.70
8103;DHT22;4094;49.948;11.574;2023-04-30T15:59:41;21.70;39.80
8103;DHT22;4094;49.948;11.574;2023-04-30T16:02:11;21.70;39.90
8103;DHT22;4094;49.948;11.574;2023-04-30T16:04:40;21.70;40.10
8103;DHT22;4094;49.948;11.574;2023-04-30T16:07:10;21.70;40.00
8103;DHT22;4094;49.948;11.574;2023-04-30T16:09:40;21.60;40.00
8103;DHT22;4094;49.948;11.574;2023-04-30T16:12:14;21.60;40.00
8103;DHT22;4094;49.948;11.574;2023-04-30T16:14:43;21.50;39.80